sensor_id;sensor_type;location;lat;lon;timestamp;P1;durP1;ratioP1;P2;durP2;ratioP2
3487;SDS011;38546;48.170;11.724;2023-11-19T00:01:51;1.80;;;1.70;;
3487;SDS011;38546;48.170;11.724;2023-11-19T00:04:40;2.00;;;1.90;;
3487;SDS011;38546;48.170;11.724;2023-11-19T00:07:30;1.90;;;1.80;;
3487;SDS011;38546;48.170;11.724;2023-11-19T00:10:19;1.70;;;1.60;;
3487;SDS011;38546;48.170;11.724;2023-11-19T00:13:09;2.13;;;1.80;;
3487;SDS011;38546;48.170;11.724;2023-11-19T00:15:59;1.80;;;1.80;;
3487;SDS011;38546;48.170;11.724;2023-11-19T00:18:48;1.90;;;1.33;;
3487;SDS011;38546;48.170;11.724;2023-11-19T00:21:38;1.70;;;1.60;;
3487;SDS011;38546;48.170;11.724;2023-11-19T00:24:30;1.30;;;1.30;;
3487;SDS011;38546;48.170;11.724;2023-11-19T00:27:20;2.40;;;2.20;;
3487;SDS011;38546;48.170;11.724;2023-11-19T00:30:09;4.80;;;2.20;;
3487;SDS011;38546;48.170;11.724;2023-11-19T00:32:59;2.40;;;2.17;;
3487;SDS011;38546;48.170;11.724;2023-11-19T00:35:48;1.83;;;1.73;;
3487;SDS011;38546;48.170;11.724;2023-11-19T00:38:37;1.60;;;1.33;;
3487;SDS011;38546;48.170;11.724;2023-11-19T00:41:27;2.00;;;1.90;;
3487;SDS011;38546;48.170;11.724;2023-11-19T00:44:16;1.83;;;1.73;;
3487;SDS011;38546;48.170;11.724;2023-11-19T00:47:05;1.83;;;1.73;;
3487;SDS011;38546;48.170;11.724;2023-11-19T00:49:55;2.40;;;2.30;;
3487;SDS011;38546;48.170;11.724;2023-11-19T00:52:44;3.57;;;3.27;;
3487;SDS011;38546;48.170;11.724;2023-11-19T00:55:33;3.20;;;2.90;;
3487;SDS011;38546;48.170;11.724;2023-11-19T00:58:23;2.47;;;1.97;;
3487;SDS011;38546;48.170;11.724;2023-11-19T01:01:12;2.70;;;2.00;;
3487;SDS011;38546;48.170;11.724;2023-11-19T01:04:01;2.53;;;2.33;;
3487;SDS011;38546;48.170;11.724;2023-11-19T01:06:51;2.23;;;2.07;;
3487;SDS011;38546;48.170;11.724;2023-11-19T01:09:44;2.20;;;2.10;;
3487;SDS011;38546;48.170;11.724;2023-11-19T01:12:33;1.70;;;1.60;;
3487;SDS011;38546;48.170;11.724;2023-11-19T01:15:23;2.80;;;2.40;;
3487;SDS011;38546;48.170;11.724;2023-11-19T01:18:12;1.80;;;1.80;;
3487;SDS011;38546;48.170;11.724;2023-11-19T01:21:02;2.33;;;2.13;;
3487;SDS011;38546;48.170;11.724;2023-11-19T01:23:53;2.20;;;2.10;;
3487;SDS011;38546;48.170;11.724;2023-11-19T01:26:43;2.43;;;2.23;;
3487;SDS011;38546;48.170;11.724;2023-11-19T01:29:35;2.47;;;2.37;;
3487;SDS011;38546;48.170;11.724;2023-11-19T01:32:27;2.47;;;2.27;;
3487;SDS011;38546;48.170;11.724;2023-11-19T01:35:16;4.23;;;3.20;;
3487;SDS011;38546;48.170;11.724;2023-11-19T01:38:05;3.07;;;2.80;;
3487;SDS011;38546;48.170;11.724;2023-11-19T01:40:57;2.97;;;2.77;;
3487;SDS011;38546;48.170;11.724;2023-11-19T01:43:47;2.87;;;2.43;;
3487;SDS011;38546;48.170;11.724;2023-11-19T01:46:36;3.00;;;2.20;;
3487;SDS011;38546;48.170;11.724;2023-11-19T01:49:25;2.00;;;1.90;;
3487;SDS011;38546;48.170;11.724;2023-11-19T01:52:14;2.37;;;2.23;;
3487;SDS011;38546;48.170;11.724;2023-11-19T01:55:04;2.80;;;2.03;;
3487;SDS011;38546;48.170;11.724;2023-11-19T01:57:55;2.03;;;1.90;;
3487;SDS011;38546;48.170;11.724;2023-11-19T02:00:49;1.77;;;1.77;;
3487;SDS011;38546;48.170;11.724;2023-11-19T02:03:39;2.33;;;2.13;;
3487;SDS011;38546;48.170;11.724;2023-11-19T02:06:29;1.90;;;1.77;;
3487;SDS011;38546;48.170;11.724;2023-11-19T02:09:21;4.33;;;2.00;;
3487;SDS011;38546;48.170;11.724;2023-11-19T02:12:11;2.93;;;1.80;;
3487;SDS011;38546;48.170;11.724;2023-11-19T02:15:01;1.90;;;1.80;;
3487;SDS011;38546;48.170;11.724;2023-11-19T02:17:52;1.60;;;1.60;;
3487;SDS011;38546;48.170;11.724;2023-11-19T02:20:41;2.53;;;1.80;;
3487;SDS011;38546;48.170;11.724;2023-11-19T02:23:31;2.03;;;2.00;;
3487;SDS011;38546;48.170;11.724;2023-11-19T02:26:28;2.70;;;2.10;;
3487;SDS011;38546;48.170;11.724;2023-11-19T02:29:28;1.90;;;1.80;;
3487;SDS011;38546;48.170;11.724;2023-11-19T02:32:18;2.17;;;2.00;;
3487;SDS011;38546;48.170;11.724;2023-11-19T02:35:08;2.20;;;2.00;;
3487;SDS011;38546;48.170;11.724;2023-11-19T02:37:58;1.90;;;1.80;;
3487;SDS011;38546;48.170;11.724;2023-11-19T02:40:49;2.43;;;2.30;;
3487;SDS011;38546;48.170;11.724;2023-11-19T02:43:38;2.00;;;1.90;;
3487;SDS011;38546;48.170;11.724;2023-11-19T02:46:27;2.40;;;2.00;;
3487;SDS011;38546;48.170;11.724;2023-11-19T02:49:16;2.03;;;1.80;;
3487;SDS011;38546;48.170;11.724;2023-11-19T02:52:06;7.40;;;2.13;;
3487;SDS011;38546;48.170;11.724;2023-11-19T02:54:58;2.03;;;1.93;;
3487;SDS011;38546;48.170;11.724;2023-11-19T02:57:48;2.10;;;2.00;;
3487;SDS011;38546;48.170;11.724;2023-11-19T03:00:39;1.63;;;1.60;;
3487;SDS011;38546;48.170;11.724;2023-11-19T03:03:36;2.70;;;2.40;;
3487;SDS011;38546;48.170;11.724;2023-11-19T03:06:29;2.00;;;1.90;;
3487;SDS011;38546;48.170;11.724;2023-11-19T03:09:18;1.73;;;1.53;;
3487;SDS011;38546;48.170;11.724;2023-11-19T03:12:07;1.80;;;1.70;;
3487;SDS011;38546;48.170;11.724;2023-11-19T03:14:57;3.20;;;1.73;;
3487;SDS011;38546;48.170;11.724;2023-11-19T03:17:46;1.77;;;1.67;;
3487;SDS011;38546;48.170;11.724;2023-11-19T03:20:35;1.80;;;1.70;;
3487;SDS011;38546;48.170;11.724;2023-11-19T03:23:24;1.90;;;1.80;;
3487;SDS011;38546;48.170;11.724;2023-11-19T03:26:16;2.20;;;2.00;;
3487;SDS011;38546;48.170;11.724;2023-11-19T03:29:05;2.10;;;1.87;;
3487;SDS011;38546;48.170;11.724;2023-11-19T03:31:55;2.00;;;1.90;;
3487;SDS011;38546;48.170;11.724;2023-11-19T03:34:44;2.40;;;2.07;;
3487;SDS011;38546;48.170;11.724;2023-11-19T03:37:33;2.00;;;1.90;;
3487;SDS011;38546;48.170;11.724;2023-11-19T03:40:23;3.83;;;1.93;;
3487;SDS011;38546;48.170;11.724;2023-11-19T03:43:13;2.03;;;1.97;;
3487;SDS011;38546;48.170;11.724;2023-11-19T03:46:03;1.97;;;1.87;;
3487;SDS011;38546;48.170;11.724;2023-11-19T03:48:53;2.33;;;2.20;;
3487;SDS011;38546;48.170;11.724;2023-11-19T03:51:42;1.77;;;1.73;;
3487;SDS011;38546;48.170;11.724;2023-11-19T03:54:32;2.20;;;1.93;;
3487;SDS011;38546;48.170;11.724;2023-11-19T03:57:21;2.40;;;2.30;;
3487;SDS011;38546;48.170;11.724;2023-11-19T04:00:12;1.80;;;1.70;;
3487;SDS011;38546;48.170;11.724;2023-11-19T04:03:02;1.53;;;1.50;;
3487;SDS011;38546;48.170;11.724;2023-11-19T04:05:52;2.57;;;2.37;;
3487;SDS011;38546;48.170;11.724;2023-11-19T04:08:41;1.80;;;1.70;;
3487;SDS011;38546;48.170;11.724;2023-11-19T04:11:30;2.10;;;2.00;;
3487;SDS011;38546;48.170;11.724;2023-11-19T04:14:21;1.87;;;1.77;;
3487;SDS011;38546;48.170;11.724;2023-11-19T04:17:10;1.90;;;1.80;;
3487;SDS011;38546;48.170;11.724;2023-11-19T04:19:59;1.83;;;1.73;;
3487;SDS011;38546;48.170;11.724;2023-11-19T04:22:50;1.83;;;1.73;;
3487;SDS011;38546;48.170;11.724;2023-11-19T04:25:40;1.80;;;1.57;;
3487;SDS011;38546;48.170;11.724;2023-11-19T04:28:29;1.80;;;1.70;;
3487;SDS011;38546;48.170;11.724;2023-11-19T04:31:19;1.70;;;1.60;;
3487;SDS011;38546;48.170;11.724;2023-11-19T04:34:08;2.00;;;1.90;;
3487;SDS011;38546;48.170;11.724;2023-11-19T04:36:57;1.60;;;1.60;;
3487;SDS011;38546;48.170;11.724;2023-11-19T04:39:49;1.90;;;1.80;;
3487;SDS011;38546;48.170;11.724;2023-11-19T04:42:39;2.00;;;1.90;;
3487;SDS011;38546;48.170;11.724;2023-11-19T04:45:29;1.80;;;1.70;;
3487;SDS011;38546;48.170;11.724;2023-11-19T04:48:18;1.70;;;1.60;;
3487;SDS011;38546;48.170;11.724;2023-11-19T04:51:07;1.90;;;1.80;;
3487;SDS011;38546;48.170;11.724;2023-11-19T04:53:59;2.13;;;2.00;;
3487;SDS011;38546;48.170;11.724;2023-11-19T04:56:48;3.10;;;2.43;;
3487;SDS011;38546;48.170;11.724;2023-11-19T04:59:38;1.87;;;1.77;;
3487;SDS011;38546;48.170;11.724;2023-11-19T05:02:28;2.20;;;2.10;;
3487;SDS011;38546;48.170;11.724;2023-11-19T05:05:17;2.27;;;2.17;;
3487;SDS011;38546;48.170;11.724;2023-11-19T05:08:07;2.30;;;2.20;;
3487;SDS011;38546;48.170;11.724;2023-11-19T05:10:56;1.93;;;1.83;;
3487;SDS011;38546;48.170;11.724;2023-11-19T05:13:46;2.13;;;2.00;;
3487;SDS011;38546;48.170;11.724;2023-11-19T05:16:35;1.33;;;1.33;;
3487;SDS011;38546;48.170;11.724;2023-11-19T05:19:24;4.00;;;1.60;;
3487;SDS011;38546;48.170;11.724;2023-11-19T05:22:13;1.40;;;1.40;;
3487;SDS011;38546;48.170;11.724;2023-11-19T05:25:02;1.87;;;1.77;;
3487;SDS011;38546;48.170;11.724;2023-11-19T05:27:54;1.80;;;1.70;;
3487;SDS011;38546;48.170;11.724;2023-11-19T05:30:43;3.33;;;1.90;;
3487;SDS011;38546;48.170;11.724;2023-11-19T05:33:34;2.20;;;1.73;;
3487;SDS011;38546;48.170;11.724;2023-11-19T05:36:24;2.07;;;1.97;;
3487;SDS011;38546;48.170;11.724;2023-11-19T05:39:13;2.13;;;2.03;;
3487;SDS011;38546;48.170;11.724;2023-11-19T05:42:03;1.90;;;1.80;;
3487;SDS011;38546;48.170;11.724;2023-11-19T05:44:53;1.57;;;1.47;;
3487;SDS011;38546;48.170;11.724;2023-11-19T05:47:43;6.53;;;2.17;;
3487;SDS011;38546;48.170;11.724;2023-11-19T05:50:32;2.50;;;2.30;;
3487;SDS011;38546;48.170;11.724;2023-11-19T05:53:22;1.80;;;1.70;;
3487;SDS011;38546;48.170;11.724;2023-11-19T05:56:11;1.77;;;1.67;;
3487;SDS011;38546;48.170;11.724;2023-11-19T05:59:01;2.00;;;1.80;;
3487;SDS011;38546;48.170;11.724;2023-11-19T06:01:57;1.70;;;1.60;;
3487;SDS011;38546;48.170;11.724;2023-11-19T06:04:46;3.20;;;2.23;;
3487;SDS011;38546;48.170;11.724;2023-11-19T06:07:36;1.80;;;1.70;;
3487;SDS011;38546;48.170;11.724;2023-11-19T06:10:27;1.93;;;1.83;;
3487;SDS011;38546;48.170;11.724;2023-11-19T06:13:19;1.87;;;1.77;;
3487;SDS011;38546;48.170;11.724;2023-11-19T06:16:08;1.80;;;1.70;;
3487;SDS011;38546;48.170;11.724;2023-11-19T06:18:57;1.77;;;1.73;;
3487;SDS011;38546;48.170;11.724;2023-11-19T06:21:46;2.23;;;2.13;;
3487;SDS011;38546;48.170;11.724;2023-11-19T06:24:35;1.60;;;1.57;;
3487;SDS011;38546;48.170;11.724;2023-11-19T06:27:24;1.50;;;1.40;;
3487;SDS011;38546;48.170;11.724;2023-11-19T06:30:13;1.30;;;1.30;;
3487;SDS011;38546;48.170;11.724;2023-11-19T06:33:02;1.50;;;1.40;;
3487;SDS011;38546;48.170;11.724;2023-11-19T06:35:52;1.63;;;1.53;;
3487;SDS011;38546;48.170;11.724;2023-11-19T06:38:43;1.33;;;1.23;;
3487;SDS011;38546;48.170;11.724;2023-11-19T06:41:32;1.87;;;1.77;;
3487;SDS011;38546;48.170;11.724;2023-11-19T06:44:21;1.67;;;1.57;;
3487;SDS011;38546;48.170;11.724;2023-11-19T06:47:10;1.30;;;1.30;;
3487;SDS011;38546;48.170;11.724;2023-11-19T06:49:59;1.47;;;1.30;;
3487;SDS011;38546;48.170;11.724;2023-11-19T06:52:48;1.40;;;1.30;;
3487;SDS011;38546;48.170;11.724;2023-11-19T06:55:36;1.37;;;1.27;;
3487;SDS011;38546;48.170;11.724;2023-11-19T06:58:25;1.20;;;1.10;;
3487;SDS011;38546;48.170;11.724;2023-11-19T07:01:14;1.20;;;1.20;;
3487;SDS011;38546;48.170;11.724;2023-11-19T07:04:04;1.00;;;1.00;;
3487;SDS011;38546;48.170;11.724;2023-11-19T07:06:57;1.80;;;1.03;;
3487;SDS011;38546;48.170;11.724;2023-11-19T07:09:46;1.20;;;1.20;;
3487;SDS011;38546;48.170;11.724;2023-11-19T07:12:36;1.20;;;1.10;;
3487;SDS011;38546;48.170;11.724;2023-11-19T07:15:25;1.37;;;1.17;;
3487;SDS011;38546;48.170;11.724;2023-11-19T07:18:14;1.13;;;1.13;;
3487;SDS011;38546;48.170;11.724;2023-11-19T07:21:04;1.40;;;1.30;;
3487;SDS011;38546;48.170;11.724;2023-11-19T07:23:54;1.60;;;1.50;;
3487;SDS011;38546;48.170;11.724;2023-11-19T07:26:45;1.00;;;1.00;;
3487;SDS011;38546;48.170;11.724;2023-11-19T07:29:38;1.10;;;1.10;;
3487;SDS011;38546;48.170;11.724;2023-11-19T07:32:26;1.10;;;1.10;;
3487;SDS011;38546;48.170;11.724;2023-11-19T07:35:15;0.90;;;0.90;;
3487;SDS011;38546;48.170;11.724;2023-11-19T07:38:05;1.17;;;1.17;;
3487;SDS011;38546;48.170;11.724;2023-11-19T07:40:55;1.00;;;1.00;;
3487;SDS011;38546;48.170;11.724;2023-11-19T07:43:44;1.43;;;1.00;;
3487;SDS011;38546;48.170;11.724;2023-11-19T07:46:33;1.13;;;1.03;;
3487;SDS011;38546;48.170;11.724;2023-11-19T07:49:22;1.00;;;1.00;;
3487;SDS011;38546;48.170;11.724;2023-11-19T07:52:11;0.93;;;0.93;;
3487;SDS011;38546;48.170;11.724;2023-11-19T07:55:00;0.73;;;0.73;;
3487;SDS011;38546;48.170;11.724;2023-11-19T07:57:49;0.80;;;0.80;;
3487;SDS011;38546;48.170;11.724;2023-11-19T08:00:38;0.97;;;0.97;;
3487;SDS011;38546;48.170;11.724;2023-11-19T08:03:29;0.87;;;0.87;;
3487;SDS011;38546;48.170;11.724;2023-11-19T08:06:18;1.40;;;1.00;;
3487;SDS011;38546;48.170;11.724;2023-11-19T08:09:08;0.90;;;0.90;;
3487;SDS011;38546;48.170;11.724;2023-11-19T08:12:01;0.87;;;0.83;;
3487;SDS011;38546;48.170;11.724;2023-11-19T08:14:52;0.70;;;0.70;;
3487;SDS011;38546;48.170;11.724;2023-11-19T08:17:41;0.87;;;0.87;;
3487;SDS011;38546;48.170;11.724;2023-11-19T08:20:34;0.80;;;0.80;;
3487;SDS011;38546;48.170;11.724;2023-11-19T08:23:23;0.70;;;0.70;;
3487;SDS011;38546;48.170;11.724;2023-11-19T08:26:14;0.80;;;0.80;;
3487;SDS011;38546;48.170;11.724;2023-11-19T08:29:05;0.83;;;0.80;;
3487;SDS011;38546;48.170;11.724;2023-11-19T08:31:54;0.73;;;0.73;;
3487;SDS011;38546;48.170;11.724;2023-11-19T08:34:49;1.27;;;0.97;;
3487;SDS011;38546;48.170;11.724;2023-11-19T08:37:38;1.00;;;0.97;;
3487;SDS011;38546;48.170;11.724;2023-11-19T08:40:27;1.00;;;1.00;;
3487;SDS011;38546;48.170;11.724;2023-11-19T08:43:18;0.90;;;0.90;;
3487;SDS011;38546;48.170;11.724;2023-11-19T08:46:11;0.70;;;0.70;;
3487;SDS011;38546;48.170;11.724;2023-11-19T08:49:01;0.70;;;0.70;;
3487;SDS011;38546;48.170;11.724;2023-11-19T08:51:50;0.83;;;0.83;;
3487;SDS011;38546;48.170;11.724;2023-11-19T08:54:42;0.80;;;0.80;;
3487;SDS011;38546;48.170;11.724;2023-11-19T08:57:32;0.80;;;0.80;;
3487;SDS011;38546;48.170;11.724;2023-11-19T09:00:21;0.90;;;0.90;;
3487;SDS011;38546;48.170;11.724;2023-11-19T09:03:11;1.13;;;1.10;;
3487;SDS011;38546;48.170;11.724;2023-11-19T09:06:00;1.53;;;1.53;;
3487;SDS011;38546;48.170;11.724;2023-11-19T09:08:50;2.20;;;2.10;;
3487;SDS011;38546;48.170;11.724;2023-11-19T09:11:40;1.30;;;1.30;;
3487;SDS011;38546;48.170;11.724;2023-11-19T09:14:29;1.70;;;1.60;;
3487;SDS011;38546;48.170;11.724;2023-11-19T09:17:19;1.37;;;1.37;;
3487;SDS011;38546;48.170;11.724;2023-11-19T09:20:08;1.80;;;1.70;;
3487;SDS011;38546;48.170;11.724;2023-11-19T09:23:00;3.93;;;2.30;;
3487;SDS011;38546;48.170;11.724;2023-11-19T09:25:50;1.70;;;1.60;;
3487;SDS011;38546;48.170;11.724;2023-11-19T09:28:39;2.87;;;1.23;;
3487;SDS011;38546;48.170;11.724;2023-11-19T09:31:28;2.07;;;1.60;;
3487;SDS011;38546;48.170;11.724;2023-11-19T09:34:17;1.00;;;1.00;;
3487;SDS011;38546;48.170;11.724;2023-11-19T09:37:06;1.40;;;1.30;;
3487;SDS011;38546;48.170;11.724;2023-11-19T09:39:56;1.10;;;1.10;;
3487;SDS011;38546;48.170;11.724;2023-11-19T09:42:45;1.20;;;1.20;;
3487;SDS011;38546;48.170;11.724;2023-11-19T09:45:42;1.90;;;1.50;;
3487;SDS011;38546;48.170;11.724;2023-11-19T09:48:39;2.40;;;2.20;;
3487;SDS011;38546;48.170;11.724;2023-11-19T09:51:31;1.87;;;1.77;;
3487;SDS011;38546;48.170;11.724;2023-11-19T09:54:20;1.40;;;1.30;;
3487;SDS011;38546;48.170;11.724;2023-11-19T09:57:10;1.67;;;1.57;;
3487;SDS011;38546;48.170;11.724;2023-11-19T10:00:04;1.53;;;1.43;;
3487;SDS011;38546;48.170;11.724;2023-11-19T10:02:55;1.60;;;1.50;;
3487;SDS011;38546;48.170;11.724;2023-11-19T10:05:46;2.07;;;1.97;;
3487;SDS011;38546;48.170;11.724;2023-11-19T10:08:38;1.73;;;1.63;;
3487;SDS011;38546;48.170;11.724;2023-11-19T10:11:28;1.60;;;1.50;;
3487;SDS011;38546;48.170;11.724;2023-11-19T10:14:19;1.47;;;1.37;;
3487;SDS011;38546;48.170;11.724;2023-11-19T10:17:12;1.30;;;1.27;;
3487;SDS011;38546;48.170;11.724;2023-11-19T10:20:02;2.17;;;1.60;;
3487;SDS011;38546;48.170;11.724;2023-11-19T10:22:53;1.50;;;1.47;;
3487;SDS011;38546;48.170;11.724;2023-11-19T10:25:44;1.97;;;1.60;;
3487;SDS011;38546;48.170;11.724;2023-11-19T10:28:40;3.03;;;2.00;;
3487;SDS011;38546;48.170;11.724;2023-11-19T10:31:32;2.47;;;1.60;;
3487;SDS011;38546;48.170;11.724;2023-11-19T10:34:25;2.03;;;1.67;;
3487;SDS011;38546;48.170;11.724;2023-11-19T10:37:28;1.53;;;1.43;;
3487;SDS011;38546;48.170;11.724;2023-11-19T10:40:20;1.50;;;1.40;;
3487;SDS011;38546;48.170;11.724;2023-11-19T10:43:10;4.50;;;1.27;;
3487;SDS011;38546;48.170;11.724;2023-11-19T10:46:10;2.30;;;1.23;;
3487;SDS011;38546;48.170;11.724;2023-11-19T10:49:00;1.83;;;1.33;;
3487;SDS011;38546;48.170;11.724;2023-11-19T10:51:50;1.10;;;1.10;;
3487;SDS011;38546;48.170;11.724;2023-11-19T10:54:40;0.97;;;0.97;;
3487;SDS011;38546;48.170;11.724;2023-11-19T10:57:33;1.37;;;1.37;;
3487;SDS011;38546;48.170;11.724;2023-11-19T11:00:28;0.83;;;0.83;;
3487;SDS011;38546;48.170;11.724;2023-11-19T11:03:21;1.27;;;1.27;;
3487;SDS011;38546;48.170;11.724;2023-11-19T11:06:13;1.10;;;1.10;;
3487;SDS011;38546;48.170;11.724;2023-11-19T11:09:02;1.20;;;1.03;;
3487;SDS011;38546;48.170;11.724;2023-11-19T11:11:53;1.07;;;1.07;;
3487;SDS011;38546;48.170;11.724;2023-11-19T11:14:46;1.97;;;1.87;;
3487;SDS011;38546;48.170;11.724;2023-11-19T11:17:35;1.37;;;1.27;;
3487;SDS011;38546;48.170;11.724;2023-11-19T11:20:28;3.90;;;1.30;;
3487;SDS011;38546;48.170;11.724;2023-11-19T11:27:32;1.00;;;1.00;;
3487;SDS011;38546;48.170;11.724;2023-11-19T11:30:46;0.80;;;0.80;;
3487;SDS011;38546;48.170;11.724;2023-11-19T11:36:31;1.00;;;1.00;;
3487;SDS011;38546;48.170;11.724;2023-11-19T11:39:42;0.80;;;0.80;;
3487;SDS011;38546;48.170;11.724;2023-11-19T11:42:32;1.10;;;1.10;;
3487;SDS011;38546;48.170;11.724;2023-11-19T11:45:35;0.70;;;0.70;;
3487;SDS011;38546;48.170;11.724;2023-11-19T11:48:31;0.70;;;0.70;;
3487;SDS011;38546;48.170;11.724;2023-11-19T11:51:39;0.80;;;0.80;;
3487;SDS011;38546;48.170;11.724;2023-11-19T11:54:48;0.77;;;0.77;;
3487;SDS011;38546;48.170;11.724;2023-11-19T11:57:37;0.97;;;0.93;;
3487;SDS011;38546;48.170;11.724;2023-11-19T12:00:28;0.70;;;0.70;;
3487;SDS011;38546;48.170;11.724;2023-11-19T12:03:21;1.30;;;1.20;;
3487;SDS011;38546;48.170;11.724;2023-11-19T12:06:10;0.70;;;0.70;;
3487;SDS011;38546;48.170;11.724;2023-11-19T12:09:00;0.83;;;0.83;;
3487;SDS011;38546;48.170;11.724;2023-11-19T12:11:50;0.87;;;0.87;;
3487;SDS011;38546;48.170;11.724;2023-11-19T12:15:02;0.77;;;0.77;;
3487;SDS011;38546;48.170;11.724;2023-11-19T12:17:58;1.00;;;1.00;;
3487;SDS011;38546;48.170;11.724;2023-11-19T12:20:48;0.77;;;0.77;;
3487;SDS011;38546;48.170;11.724;2023-11-19T12:23:44;0.80;;;0.80;;
3487;SDS011;38546;48.170;11.724;2023-11-19T12:26:37;0.70;;;0.70;;
3487;SDS011;38546;48.170;11.724;2023-11-19T12:29:26;0.80;;;0.80;;
3487;SDS011;38546;48.170;11.724;2023-11-19T12:32:16;0.73;;;0.73;;
3487;SDS011;38546;48.170;11.724;2023-11-19T12:35:05;1.53;;;0.80;;
3487;SDS011;38546;48.170;11.724;2023-11-19T12:37:59;0.87;;;0.87;;
3487;SDS011;38546;48.170;11.724;2023-11-19T12:41:09;0.70;;;0.70;;
3487;SDS011;38546;48.170;11.724;2023-11-19T12:44:10;2.20;;;0.97;;
3487;SDS011;38546;48.170;11.724;2023-11-19T12:47:01;0.73;;;0.73;;
3487;SDS011;38546;48.170;11.724;2023-11-19T12:49:55;0.77;;;0.77;;
3487;SDS011;38546;48.170;11.724;2023-11-19T12:52:57;0.80;;;0.77;;
3487;SDS011;38546;48.170;11.724;2023-11-19T12:55:47;2.07;;;0.90;;
3487;SDS011;38546;48.170;11.724;2023-11-19T12:58:36;0.83;;;0.83;;
3487;SDS011;38546;48.170;11.724;2023-11-19T13:01:27;0.90;;;0.90;;
3487;SDS011;38546;48.170;11.724;2023-11-19T13:04:16;0.70;;;0.70;;
3487;SDS011;38546;48.170;11.724;2023-11-19T13:07:06;0.90;;;0.90;;
3487;SDS011;38546;48.170;11.724;2023-11-19T13:10:02;1.43;;;1.07;;
3487;SDS011;38546;48.170;11.724;2023-11-19T13:13:01;0.70;;;0.70;;
3487;SDS011;38546;48.170;11.724;2023-11-19T13:16:01;0.80;;;0.80;;
3487;SDS011;38546;48.170;11.724;2023-11-19T13:18:54;0.90;;;0.90;;
3487;SDS011;38546;48.170;11.724;2023-11-19T13:21:43;3.00;;;0.73;;
3487;SDS011;38546;48.170;11.724;2023-11-19T13:24:35;3.60;;;0.90;;
3487;SDS011;38546;48.170;11.724;2023-11-19T13:27:24;0.80;;;0.80;;
3487;SDS011;38546;48.170;11.724;2023-11-19T13:30:13;1.00;;;0.90;;
3487;SDS011;38546;48.170;11.724;2023-11-19T13:33:03;0.90;;;0.90;;
3487;SDS011;38546;48.170;11.724;2023-11-19T13:35:52;1.07;;;1.00;;
3487;SDS011;38546;48.170;11.724;2023-11-19T13:38:41;1.07;;;1.07;;
3487;SDS011;38546;48.170;11.724;2023-11-19T13:41:32;1.10;;;1.00;;
3487;SDS011;38546;48.170;11.724;2023-11-19T13:44:21;1.00;;;1.00;;
3487;SDS011;38546;48.170;11.724;2023-11-19T13:47:10;0.83;;;0.83;;
3487;SDS011;38546;48.170;11.724;2023-11-19T13:50:01;0.90;;;0.90;;
3487;SDS011;38546;48.170;11.724;2023-11-19T13:52:54;0.83;;;0.83;;
3487;SDS011;38546;48.170;11.724;2023-11-19T13:55:44;1.10;;;1.10;;
3487;SDS011;38546;48.170;11.724;2023-11-19T13:58:32;1.37;;;1.10;;
3487;SDS011;38546;48.170;11.724;2023-11-19T14:01:22;0.83;;;0.83;;
3487;SDS011;38546;48.170;11.724;2023-11-19T14:04:11;1.13;;;1.13;;
3487;SDS011;38546;48.170;11.724;2023-11-19T14:07:01;1.67;;;1.57;;
3487;SDS011;38546;48.170;11.724;2023-11-19T14:09:51;2.07;;;1.97;;
3487;SDS011;38546;48.170;11.724;2023-11-19T14:12:40;2.70;;;2.30;;
3487;SDS011;38546;48.170;11.724;2023-11-19T14:15:30;2.00;;;1.63;;
3487;SDS011;38546;48.170;11.724;2023-11-19T14:18:19;1.70;;;1.60;;
3487;SDS011;38546;48.170;11.724;2023-11-19T14:21:08;1.80;;;1.70;;
3487;SDS011;38546;48.170;11.724;2023-11-19T14:23:57;1.37;;;1.27;;
3487;SDS011;38546;48.170;11.724;2023-11-19T14:26:46;1.53;;;1.43;;
3487;SDS011;38546;48.170;11.724;2023-11-19T14:29:39;1.30;;;1.20;;
3487;SDS011;38546;48.170;11.724;2023-11-19T14:32:29;1.40;;;1.30;;
3487;SDS011;38546;48.170;11.724;2023-11-19T14:35:17;0.90;;;0.90;;
3487;SDS011;38546;48.170;11.724;2023-11-19T14:38:08;2.57;;;2.40;;
3487;SDS011;38546;48.170;11.724;2023-11-19T14:40:58;1.00;;;1.00;;
3487;SDS011;38546;48.170;11.724;2023-11-19T14:43:48;1.00;;;1.00;;
3487;SDS011;38546;48.170;11.724;2023-11-19T14:46:37;0.90;;;0.90;;
3487;SDS011;38546;48.170;11.724;2023-11-19T14:49:26;1.17;;;1.17;;
3487;SDS011;38546;48.170;11.724;2023-11-19T14:52:16;1.00;;;1.00;;
3487;SDS011;38546;48.170;11.724;2023-11-19T14:55:05;1.20;;;1.10;;
3487;SDS011;38546;48.170;11.724;2023-11-19T14:57:55;1.47;;;1.33;;
3487;SDS011;38546;48.170;11.724;2023-11-19T15:00:45;2.50;;;1.40;;
3487;SDS011;38546;48.170;11.724;2023-11-19T15:03:34;1.27;;;1.27;;
3487;SDS011;38546;48.170;11.724;2023-11-19T15:06:23;1.47;;;1.33;;
3487;SDS011;38546;48.170;11.724;2023-11-19T15:09:16;1.90;;;1.80;;
3487;SDS011;38546;48.170;11.724;2023-11-19T15:12:06;1.27;;;1.27;;
3487;SDS011;38546;48.170;11.724;2023-11-19T15:14:55;3.83;;;1.70;;
3487;SDS011;38546;48.170;11.724;2023-11-19T15:17:44;1.10;;;1.10;;
3487;SDS011;38546;48.170;11.724;2023-11-19T15:20:33;0.90;;;0.90;;
3487;SDS011;38546;48.170;11.724;2023-11-19T15:23:22;1.50;;;1.40;;
3487;SDS011;38546;48.170;11.724;2023-11-19T15:26:11;1.60;;;1.50;;
3487;SDS011;38546;48.170;11.724;2023-11-19T15:29:01;1.47;;;1.37;;
3487;SDS011;38546;48.170;11.724;2023-11-19T15:31:50;3.33;;;1.20;;
3487;SDS011;38546;48.170;11.724;2023-11-19T15:34:39;2.57;;;1.57;;
3487;SDS011;38546;48.170;11.724;2023-11-19T15:37:30;1.33;;;1.33;;
3487;SDS011;38546;48.170;11.724;2023-11-19T15:40:19;1.70;;;1.70;;
3487;SDS011;38546;48.170;11.724;2023-11-19T15:43:09;2.40;;;2.20;;
3487;SDS011;38546;48.170;11.724;2023-11-19T15:45:58;1.80;;;1.70;;
3487;SDS011;38546;48.170;11.724;2023-11-19T15:48:47;1.90;;;1.80;;
3487;SDS011;38546;48.170;11.724;2023-11-19T15:51:36;1.27;;;1.27;;
3487;SDS011;38546;48.170;11.724;2023-11-19T15:54:25;1.83;;;1.73;;
3487;SDS011;38546;48.170;11.724;2023-11-19T15:57:14;0.90;;;0.90;;
3487;SDS011;38546;48.170;11.724;2023-11-19T16:00:05;1.47;;;1.40;;
3487;SDS011;38546;48.170;11.724;2023-11-19T16:02:59;1.07;;;1.07;;
3487;SDS011;38546;48.170;11.724;2023-11-19T16:05:48;1.10;;;1.10;;
3487;SDS011;38546;48.170;11.724;2023-11-19T16:08:37;1.40;;;1.30;;
3487;SDS011;38546;48.170;11.724;2023-11-19T16:11:27;1.63;;;1.53;;
3487;SDS011;38546;48.170;11.724;2023-11-19T16:14:15;1.27;;;1.27;;
3487;SDS011;38546;48.170;11.724;2023-11-19T16:17:05;1.47;;;1.37;;
3487;SDS011;38546;48.170;11.724;2023-11-19T16:19:54;1.70;;;1.60;;
3487;SDS011;38546;48.170;11.724;2023-11-19T16:22:44;2.00;;;1.90;;
3487;SDS011;38546;48.170;11.724;2023-11-19T16:25:33;1.80;;;1.30;;
3487;SDS011;38546;48.170;11.724;2023-11-19T16:28:23;1.60;;;1.50;;
3487;SDS011;38546;48.170;11.724;2023-11-19T16:31:12;2.87;;;2.50;;
3487;SDS011;38546;48.170;11.724;2023-11-19T16:34:02;2.70;;;2.50;;
3487;SDS011;38546;48.170;11.724;2023-11-19T16:36:53;2.40;;;2.27;;
3487;SDS011;38546;48.170;11.724;2023-11-19T16:39:42;1.90;;;1.80;;
3487;SDS011;38546;48.170;11.724;2023-11-19T16:42:32;3.23;;;2.60;;
3487;SDS011;38546;48.170;11.724;2023-11-19T16:45:21;5.27;;;2.70;;
3487;SDS011;38546;48.170;11.724;2023-11-19T16:48:10;1.90;;;1.80;;
3487;SDS011;38546;48.170;11.724;2023-11-19T16:51:00;4.27;;;2.60;;
3487;SDS011;38546;48.170;11.724;2023-11-19T16:54:02;1.77;;;1.67;;
3487;SDS011;38546;48.170;11.724;2023-11-19T16:56:51;1.70;;;1.60;;
3487;SDS011;38546;48.170;11.724;2023-11-19T16:59:41;1.83;;;1.73;;
3487;SDS011;38546;48.170;11.724;2023-11-19T17:02:30;1.40;;;1.40;;
3487;SDS011;38546;48.170;11.724;2023-11-19T17:05:20;1.80;;;1.70;;
3487;SDS011;38546;48.170;11.724;2023-11-19T17:08:09;1.37;;;1.27;;
3487;SDS011;38546;48.170;11.724;2023-11-19T17:11:01;4.50;;;2.00;;
3487;SDS011;38546;48.170;11.724;2023-11-19T17:13:54;1.93;;;1.50;;
3487;SDS011;38546;48.170;11.724;2023-11-19T17:16:43;1.30;;;1.20;;